Главная страница
METAR-TAF:

METAR-TAF

Аэропорты :

Любек, Германия

широта: 53-49N, долгота: 010-42E, высота над уровнем моря: 14 м

Текущие метеонаблюдения

Эта сводка был подготовлена 8 часа и 50 минут назад, в 18:50 UTC
Ветер 1 Узел переменных направлений
Температура 13°C
Влажность 94%
Давление 1019 hPa
Видимость 10 км и более
Нет облачности ниже 1500 м, и нет кучево-дождевой облачности

METAR: EDHL 171850Z VRB01KT CAVOK 13/12 Q1019

Время: 05:40 (03:40 UTC)

Прогноз

Эта сводка был подготовлена 10 часа и 40 минут назад, в 17:00 UTC
Прогноз действительный с 17-го 18 UTC до 17-го 21 UTC
Ветер 1 Узел переменных направлений
Видимость 10 км и более
Нет облачности ниже 1500 м, и нет кучево-дождевой облачности
изменения
С 17-го 18 UTC до 17-го 20 UTC
Видимость: 2000 м
клочья тумана
временами
С 17-го 20 UTC до 17-го 21 UTC
Видимость: 0600 м
туман

TAF: EDHL 171700Z 1718/1721 VRB01KT CAVOK BECMG 1718/1720 2000 BCFG TEMPO 1720/1721 0600 FG

Метеонаблюдения и прогнозы для более 4000 аэропортов (сводки METAR и TAF).

Имеющиеся станции представлены на карте желтыми и красными точками.

Чтобы увидеть название станции, наведите на нее мышь.

Затем щелкните, чтобы увидеть метеонаблюдения и метеопрогнозы.

Управление картой: чтобы увеличить масштаб, щелкните зеленые кнопки с черным крестиком; чтобы уменьшить масштаб, щелкните зеленую кнопку с тире; для просмотра соседних карт щелкайте зеленые стрелки.


METAR-TAF: